Time;durP1;ratioP1;P1;durP2;ratioP2;P2;SDS_P1;SDS_P2;PMS_P1;PMS_P2;Temp;Humidity;BMP_temperature;BMP_pressure;BME280_temperature;BME280_humidity;BME280_pressure;Samples;Min_cycle;Max_cycle;Signal;HPM_P1;HPM_P2
2021/10/01 00:01:29;;;;;;;11.00;3.57;;;;;;;5.45;78.32;100685.20;1730240;81;21541;-63
2021/10/01 00:03:56;;;;;;;6.55;2.92;;;;;;;5.42;78.33;100678.32;1730517;81;22524;-63
2021/10/01 00:06:23;;;;;;;4.90;2.83;;;;;;;5.41;78.34;100679.66;1731254;81;21164;-63
2021/10/01 00:08:49;;;;;;;7.55;2.60;;;;;;;5.38;78.41;100682.69;1738396;80;22321;-63
2021/10/01 00:11:16;;;;;;;9.88;3.25;;;;;;;5.36;78.42;100675.80;1734286;80;22312;-63
2021/10/01 00:13:44;;;;;;;6.30;2.90;;;;;;;5.35;78.57;100677.55;1738722;80;21525;-63
2021/10/01 00:16:11;;;;;;;7.33;2.65;;;;;;;5.34;78.55;100680.13;1696206;82;21686;-62
2021/10/01 00:18:38;;;;;;;5.15;2.33;;;;;;;5.31;78.54;100674.98;1710336;81;21080;-63
2021/10/01 00:21:05;;;;;;;7.73;2.83;;;;;;;5.30;78.55;100683.64;1729874;82;21132;-63
2021/10/01 00:23:32;;;;;;;;;;;;;;;5.29;78.60;100681.91;1733476;81;22580;-63
2021/10/01 00:25:58;;;;;;;6.97;2.67;;;;;;;5.27;78.73;100678.50;1725732;82;20975;-63
2021/10/01 00:28:25;;;;;;;5.10;2.70;;;;;;;5.26;78.75;100680.20;1727424;81;21454;-63
2021/10/01 00:30:52;;;;;;;6.57;2.73;;;;;;;5.25;78.93;100676.36;1724378;82;21538;-63
2021/10/01 00:33:18;;;;;;;7.47;2.62;;;;;;;5.25;78.93;100676.36;1735516;82;20970;-63
2021/10/01 00:35:45;;;;;;;5.42;2.67;;;;;;;5.24;78.79;100677.23;1738308;80;21088;-62
2021/10/01 00:38:12;;;;;;;9.50;2.67;;;;;;;5.21;78.76;100678.53;1734495;81;22388;-63
2021/10/01 00:40:38;;;;;;;6.13;2.70;;;;;;;5.18;78.78;100679.42;1760462;80;21433;-62
2021/10/01 00:43:05;;;;;;;7.30;3.15;;;;;;;5.15;78.85;100679.05;1737950;81;20962;-63
2021/10/01 00:45:32;;;;;;;9.85;3.02;;;;;;;5.15;78.92;100676.87;1743890;80;20947;-63
2021/10/01 00:47:59;;;;;;;9.47;2.97;;;;;;;5.14;78.93;100682.92;1749395;80;21444;-63
2021/10/01 00:50:26;;;;;;;6.25;2.30;;;;;;;5.11;79.02;100683.81;1692385;82;21175;-62
2021/10/01 00:52:52;;;;;;;6.20;3.08;;;;;;;5.11;79.05;100676.05;1732756;81;21092;-63
2021/10/01 00:55:19;;;;;;;6.55;3.30;;;;;;;5.12;79.12;100684.22;1727083;81;21434;-63
2021/10/01 00:57:46;;;;;;;8.83;2.77;;;;;;;5.12;79.17;100681.63;1727041;82;21016;-63
2021/10/01 01:00:26;;;;;;;7.70;3.20;;;;;;;5.11;79.18;100678.64;1728035;80;21203;-63
2021/10/01 01:02:45;;;;;;;6.92;2.50;;;;;;;5.11;79.24;100683.81;1718673;81;21507;-63
2021/10/01 01:05:12;;;;;;;7.60;2.15;;;;;;;5.10;79.30;100687.28;1730509;81;20950;-63
2021/10/01 01:07:50;;;;;;;6.20;2.55;;;;;;;5.09;79.29;100687.28;1727710;81;21065;-63
2021/10/01 01:10:55;;;;;;;6.30;2.67;;;;;;;5.07;79.31;100684.73;1718719;81;21101;-63
2021/10/01 01:13:48;;;;;;;5.37;2.30;;;;;;;5.06;79.32;100685.58;1732112;81;21004;-63
2021/10/01 01:16:20;;;;;;;8.53;3.02;;;;;;;5.03;79.40;100679.59;1732239;82;21011;-63
2021/10/01 01:18:49;;;;;;;3.17;1.95;;;;;;;5.04;79.45;100676.11;1720219;82;21479;-63
2021/10/01 01:21:51;;;;;;;5.92;2.67;;;;;;;5.02;79.43;100677.44;1721585;81;21570;-63
2021/10/01 01:24:49;;;;;;;7.95;3.02;;;;;;;5.02;79.48;100676.14;1742715;81;21713;-63
2021/10/01 01:27:51;;;;;;;5.67;2.42;;;;;;;5.03;79.58;100673.97;1724698;81;21015;-63
2021/10/01 01:30:22;;;;;;;5.45;1.77;;;;;;;5.01;79.58;100676.99;1740474;80;21457;-63
2021/10/01 01:32:51;;;;;;;10.38;3.22;;;;;;;5.00;79.62;100674.00;1729079;81;21189;-62
2021/10/01 01:35:24;;;;;;;9.50;3.15;;;;;;;4.99;79.62;100678.77;1729145;80;22118;-63
2021/10/01 01:37:58;;;;;;;6.37;2.37;;;;;;;4.98;79.73;100682.20;1734353;80;21481;-63
2021/10/01 01:40:32;;;;;;;6.12;2.37;;;;;;;5.00;79.76;100677.87;1701565;83;21050;-63
2021/10/01 01:43:01;;;;;;;5.92;2.60;;;;;;;5.01;79.85;100676.99;1720225;81;21461;-63
2021/10/01 01:45:29;;;;;;;5.87;3.00;;;;;;;5.02;79.92;100673.55;1733494;81;21362;-63
2021/10/01 01:47:57;;;;;;;4.62;2.27;;;;;;;5.02;79.89;100676.14;1743143;81;21355;-63
2021/10/01 01:50:24;;;;;;;8.20;2.70;;;;;;;5.02;79.96;100670.97;1743524;80;21549;-63
2021/10/01 01:52:52;;;;;;;;;;;;;;;5.06;80.08;100673.08;1701856;81;22288;-63
2021/10/01 01:55:20;;;;;;;4.25;2.17;;;;;;;5.06;80.12;100677.81;1715280;81;22280;-62
2021/10/01 01:57:52;;;;;;;5.65;2.25;;;;;;;5.04;80.05;100673.11;1722178;81;28369;-63
2021/10/01 02:00:20;;;;;;;7.80;2.70;;;;;;;5.03;80.13;100675.26;1729912;81;21182;-63
2021/10/01 02:02:48;;;;;;;5.78;2.75;;;;;;;5.00;80.15;100672.70;1739408;80;22032;-62
2021/10/01 02:05:15;;;;;;;6.55;2.40;;;;;;;5.00;80.18;100664.94;1729701;82;21089;-63
2021/10/01 02:07:43;;;;;;;10.20;2.75;;;;;;;4.99;80.18;100673.59;1730669;82;22700;-62
2021/10/01 02:10:10;;;;;;;13.18;2.92;;;;;;;4.97;80.16;100670.14;1720257;81;21100;-63
2021/10/01 02:12:39;;;;;;;6.40;2.60;;;;;;;4.97;80.27;100672.73;1719809;80;26116;-63
2021/10/01 02:15:07;;;;;;;6.40;2.62;;;;;;;4.97;80.27;100672.73;1739588;81;21091;-63
2021/10/01 02:17:38;;;;;;;4.25;2.33;;;;;;;4.96;80.30;100676.20;1711226;81;21649;-63
2021/10/01 02:20:07;;;;;;;5.55;2.20;;;;;;;4.95;80.36;100674.47;1728390;80;21119;-63
2021/10/01 02:22:35;;;;;;;9.38;3.12;;;;;;;4.94;80.37;100670.17;1709498;81;21682;-63
2021/10/01 02:25:02;;;;;;;5.28;2.90;;;;;;;4.92;80.33;100669.33;1720151;81;21529;-63
2021/10/01 02:27:46;;;;;;;4.95;2.20;;;;;;;4.90;80.38;100671.06;1721566;81;21919;-63
2021/10/01 02:30:22;;;;;;;10.65;3.00;;;;;;;4.89;80.42;100669.35;1729410;80;22448;-63
2021/10/01 02:33:03;;;;;;;7.70;3.33;;;;;;;4.88;80.49;100672.83;1704429;81;22511;-62
2021/10/01 02:35:30;;;;;;;5.20;2.45;;;;;;;4.87;80.54;100680.14;1736548;81;22344;-62
2021/10/01 02:37:57;;;;;;;9.85;2.95;;;;;;;4.85;80.56;100676.30;1733317;81;24668;-63
2021/10/01 02:40:24;;;;;;;7.40;2.87;;;;;;;4.85;80.59;100678.03;1736423;81;21496;-63
2021/10/01 02:42:51;;;;;;;6.85;3.10;;;;;;;4.85;80.69;100675.44;1713140;82;21153;-62
2021/10/01 02:45:18;;;;;;;10.93;3.47;;;;;;;4.85;80.67;100668.97;1720098;81;21150;-62
2021/10/01 02:47:45;;;;;;;10.43;3.65;;;;;;;4.83;80.67;100666.83;1691050;82;22303;-63
2021/10/01 02:50:19;;;;;;;7.50;3.70;;;;;;;4.84;80.73;100665.94;1704866;82;21406;-63
2021/10/01 02:53:18;;;;;;;7.92;4.17;;;;;;;4.84;80.78;100664.20;1716967;83;21076;-63
2021/10/01 02:56:13;;;;;;;12.07;4.65;;;;;;;4.84;80.74;100668.53;1722110;82;21094;-63
2021/10/01 02:58:43;;;;;;;7.87;3.37;;;;;;;4.84;80.84;100658.17;1727354;83;21090;-63
2021/10/01 03:01:14;;;;;;;7.60;3.72;;;;;;;4.85;80.91;100658.63;1721323;81;21001;-63
2021/10/01 03:03:45;;;;;;;9.33;3.67;;;;;;;4.84;80.91;100655.59;1684710;83;21441;-63
2021/10/01 03:06:13;;;;;;;13.50;3.60;;;;;;;4.82;80.84;100653.48;1707509;81;21568;-63
2021/10/01 03:08:41;;;;;;;9.78;3.72;;;;;;;4.78;80.82;100656.50;1693241;82;21415;-62
2021/10/01 03:11:13;;;;;;;9.60;3.08;;;;;;;4.73;80.82;100657.41;1692569;82;21588;-62
2021/10/01 03:13:45;;;;;;;11.45;3.45;;;;;;;4.69;80.88;100652.27;1671112;83;21470;-62
2021/10/01 03:16:13;;;;;;;9.55;3.00;;;;;;;4.62;80.85;100648.03;1704489;83;21191;-63
2021/10/01 03:18:40;;;;;;;9.58;3.40;;;;;;;4.57;80.91;100647.20;1685135;84;21482;-63
2021/10/01 03:21:08;;;;;;;5.40;3.10;;;;;;;4.52;80.93;100653.28;1684069;83;26910;-63
2021/10/01 03:23:35;;;;;;;12.90;3.27;;;;;;;4.45;80.87;100640.41;1657878;84;22278;-63
2021/10/01 03:26:02;;;;;;;7.00;3.30;;;;;;;4.37;80.76;100641.30;1672431;84;21072;-63
2021/10/01 03:28:29;;;;;;;6.05;3.62;;;;;;;4.23;80.73;100635.81;1674675;83;21112;-63
2021/10/01 03:30:56;;;;;;;7.08;3.87;;;;;;;4.13;80.86;100641.91;1693243;82;21195;-63
2021/10/01 03:33:27;;;;;;;9.50;4.80;;;;;;;4.06;80.89;100647.11;1693990;82;21210;-63
2021/10/01 03:35:53;;;;;;;11.40;4.12;;;;;;;3.99;81.08;100645.86;1690405;82;21631;-63
2021/10/01 03:38:20;;;;;;;8.50;4.22;;;;;;;3.96;81.14;100642.44;1689006;82;27337;-63
2021/10/01 03:40:47;;;;;;;9.53;4.15;;;;;;;3.92;81.29;100639.43;1690642;83;21457;-63
2021/10/01 03:43:15;;;;;;;7.53;3.50;;;;;;;3.91;81.36;100644.19;1674966;84;21457;-64
2021/10/01 03:45:43;;;;;;;8.60;3.55;;;;;;;3.88;81.39;100637.75;1693894;81;21462;-63
2021/10/01 03:48:10;;;;;;;13.72;4.30;;;;;;;3.85;81.51;100639.05;1732997;80;21463;-63
2021/10/01 03:51:23;;;;;;;9.05;3.58;;;;;;;3.86;81.52;100638.18;1845044;75;22880;-63
2021/10/01 03:53:52;;;;;;;13.45;5.03;;;;;;;3.79;81.50;100643.38;1793387;77;21409;-63
2021/10/01 03:56:21;;;;;;;15.55;4.60;;;;;;;3.76;81.56;100642.11;1811929;76;21516;-63
2021/10/01 03:58:48;;;;;;;10.55;4.05;;;;;;;3.74;81.61;100636.08;1788089;77;21985;-63
2021/10/01 04:01:16;;;;;;;9.53;4.95;;;;;;;3.72;81.71;100640.39;1793391;77;26424;-63
2021/10/01 04:03:44;;;;;;;;;;;;;;;3.72;81.98;100633.08;1799114;77;21380;-63
2021/10/01 04:06:11;;;;;;;11.05;5.53;;;;;;;3.75;82.09;100633.95;1770242;78;20314;-63
2021/10/01 04:08:38;;;;;;;10.45;4.60;;;;;;;3.73;82.00;100632.23;1796036;77;21653;-63
2021/10/01 04:12:31;;;;;;;9.60;4.65;;;;;;;3.78;82.17;100635.22;1845159;75;22599;-63
2021/10/01 04:14:58;;;;;;;9.63;4.65;;;;;;;3.76;82.19;100638.23;1803236;77;21441;-62
2021/10/01 04:17:25;;;;;;;11.08;4.53;;;;;;;3.79;82.36;100638.22;1811127;77;21027;-63
2021/10/01 04:19:51;;;;;;;12.33;5.40;;;;;;;3.83;82.40;100630.45;1811419;77;20973;-63
2021/10/01 04:22:18;;;;;;;10.73;4.83;;;;;;;3.87;82.49;100639.92;1810905;77;20958;-62
2021/10/01 04:24:45;;;;;;;18.60;5.28;;;;;;;3.88;82.43;100631.28;1771127;79;20953;-62
2021/10/01 04:27:12;;;;;;;15.85;5.50;;;;;;;3.89;82.42;100630.41;1803379;77;21483;-62
2021/10/01 04:29:38;;;;;;;17.75;5.75;;;;;;;3.89;82.42;100629.12;1808317;77;22431;-63
2021/10/01 04:32:07;;;;;;;20.30;5.58;;;;;;;3.92;82.48;100627.80;1762853;77;22009;-63
2021/10/01 04:35:21;;;;;;;15.85;6.05;;;;;;;3.92;82.46;100631.27;1811489;78;22010;-63
2021/10/01 04:37:04;;;;;;;12.28;5.95;;;;;;;3.93;82.47;100639.88;1795039;77;21072;-63
2021/10/01 04:39:30;;;;;;;9.73;5.47;;;;;;;3.92;82.43;100643.31;1813662;78;21313;-62
2021/10/01 04:41:57;;;;;;;10.28;5.30;;;;;;;3.91;82.46;100641.60;1812900;77;22447;-63
2021/10/01 04:44:24;;;;;;;11.38;5.42;;;;;;;3.90;82.46;100642.48;1814225;77;21302;-62
2021/10/01 04:46:51;;;;;;;17.70;6.62;;;;;;;3.92;82.48;100647.19;1791982;77;21354;-63
2021/10/01 04:49:17;;;;;;;18.23;6.27;;;;;;;3.91;82.55;100646.77;1813594;78;21271;-62
2021/10/01 04:51:44;;;;;;;12.03;4.53;;;;;;;3.93;82.63;100650.22;1812716;77;21283;-62
2021/10/01 04:54:12;;;;;;;8.65;4.12;;;;;;;3.93;82.71;100645.05;1761606;79;21476;-62
2021/10/01 04:56:39;;;;;;;10.75;4.42;;;;;;;3.95;82.78;100653.63;1811974;77;20961;-62
2021/10/01 04:59:05;;;;;;;14.95;6.28;;;;;;;3.98;82.78;100657.52;1779317;79;20969;-63
2021/10/01 05:01:32;;;;;;;10.38;6.85;;;;;;;4.02;82.80;100663.08;1801953;77;20945;-62
2021/10/01 05:03:59;;;;;;;12.80;6.42;;;;;;;4.02;82.76;100665.66;1829894;76;20932;-62
2021/10/01 05:06:25;;;;;;;13.90;4.55;;;;;;;4.03;82.77;100669.95;1809978;77;21568;-63
2021/10/01 05:08:52;;;;;;;17.37;6.62;;;;;;;4.16;83.02;100671.61;1822124;75;21366;-62
2021/10/01 05:11:19;;;;;;;8.70;4.45;;;;;;;4.52;83.25;100672.23;1830463;76;21807;-62
2021/10/01 05:13:46;;;;;;;15.28;5.53;;;;;;;4.95;83.31;100666.70;1817526;76;21988;-63
2021/10/01 05:16:13;;;;;;;16.13;5.40;;;;;;;5.43;83.21;100671.41;1820793;76;20974;-62
2021/10/01 05:18:39;;;;;;;10.78;4.90;;;;;;;5.87;82.91;100665.70;1835075;76;22146;-63
2021/10/01 05:21:08;;;;;;;18.97;5.23;;;;;;;6.31;82.56;100666.86;1831290;76;21843;-63
2021/10/01 05:23:34;;;;;;;14.45;5.67;;;;;;;6.75;82.28;100670.93;1837527;76;20966;-64
2021/10/01 05:26:01;;;;;;;7.70;3.90;;;;;;;7.20;82.08;100664.52;1817436;76;20906;-63
2021/10/01 05:28:28;;;;;;;11.90;3.80;;;;;;;7.66;81.86;100669.70;1815624;76;20890;-63
2021/10/01 05:30:55;;;;;;;17.55;4.28;;;;;;;8.11;81.74;100669.62;1828551;76;22238;-64
2021/10/01 05:33:21;;;;;;;14.07;4.37;;;;;;;8.55;81.54;100667.80;1832624;76;22197;-63
2021/10/01 05:35:48;;;;;;;8.20;3.98;;;;;;;8.96;81.08;100669.80;1817727;76;21607;-64
2021/10/01 05:38:16;;;;;;;6.08;3.75;;;;;;;9.30;80.78;100670.22;1795823;76;21458;-63
2021/10/01 05:40:43;;;;;;;;;;;;;;;9.55;80.45;100662.16;1813944;76;21875;-63
2021/10/01 05:43:10;;;;;;;7.22;3.40;;;;;;;9.87;80.31;100664.29;1809549;76;26712;-63
2021/10/01 05:45:37;;;;;;;11.22;3.55;;;;;;;10.18;80.28;100656.85;1809825;76;20907;-63
2021/10/01 05:48:04;;;;;;;14.10;3.93;;;;;;;10.44;80.02;100664.73;1804054;76;21945;-64
2021/10/01 05:50:32;;;;;;;15.70;3.72;;;;;;;10.73;79.98;100664.28;1810020;76;20894;-64
2021/10/01 05:53:06;;;;;;;10.93;3.67;;;;;;;10.97;79.52;100668.66;1821147;76;20956;-64
2021/10/01 05:55:33;;;;;;;6.53;2.92;;;;;;;11.13;79.22;100668.16;1799756;76;20897;-64
2021/10/01 05:58:00;;;;;;;9.08;4.03;;;;;;;11.33;79.19;100668.30;1814908;76;21352;-64
2021/10/01 06:00:26;;;;;;;9.57;4.40;;;;;;;11.56;79.38;100670.55;1806586;76;21330;-64
2021/10/01 06:02:53;;;;;;;8.23;4.10;;;;;;;11.82;79.30;100658.69;1806823;76;21338;-63
2021/10/01 06:05:20;;;;;;;8.93;3.75;;;;;;;12.13;79.17;100667.15;1807125;77;20883;-64
2021/10/01 06:07:47;;;;;;;;;;;;;;;12.31;79.07;100664.67;1808375;76;21034;-64
2021/10/01 06:10:13;;;;;;;8.75;3.22;;;;;;;12.53;78.48;100662.05;1801837;76;20117;-64
2021/10/01 06:12:42;;;;;;;7.58;3.17;;;;;;;12.66;78.71;100662.42;1805432;76;21297;-64
2021/10/01 06:15:09;;;;;;;7.47;3.30;;;;;;;12.78;78.18;100661.52;1805998;77;21579;-64
2021/10/01 06:17:36;;;;;;;11.05;4.05;;;;;;;12.86;78.00;100662.91;1810603;77;22004;-64
2021/10/01 06:20:06;;;;;;;6.80;3.25;;;;;;;12.96;78.24;100667.30;1808440;77;22439;-65
2021/10/01 06:22:32;;;;;;;5.60;3.12;;;;;;;13.08;77.88;100660.23;1809592;77;21487;-65
2021/10/01 06:24:59;;;;;;;9.90;3.22;;;;;;;13.25;78.06;100662.56;1809130;77;21530;-65
2021/10/01 06:27:26;;;;;;;5.75;2.90;;;;;;;13.42;77.87;100659.66;1809712;77;20915;-64
2021/10/01 06:29:54;;;;;;;4.87;2.85;;;;;;;13.59;77.89;100657.59;1807624;77;21597;-64
2021/10/01 06:32:21;;;;;;;4.65;3.12;;;;;;;13.66;77.43;100655.06;1811902;77;21616;-64
2021/10/01 06:34:51;;;;;;;7.22;2.85;;;;;;;13.80;77.60;100652.28;1810449;77;20924;-64
2021/10/01 06:37:18;;;;;;;7.62;3.05;;;;;;;13.96;77.31;100653.28;1811993;77;22167;-64
2021/10/01 06:39:50;;;;;;;5.40;2.60;;;;;;;13.99;76.69;100649.66;1787287;77;21293;-64
2021/10/01 06:42:19;;;;;;;6.90;2.75;;;;;;;14.02;77.10;100641.17;1808969;77;21282;-64
2021/10/01 06:44:48;;;;;;;4.00;2.35;;;;;;;14.20;77.32;100642.53;1805387;77;22271;-65
2021/10/01 06:47:22;;;;;;;6.92;3.00;;;;;;;14.43;77.05;100642.30;1809004;77;20939;-64
2021/10/01 06:49:57;;;;;;;5.37;2.75;;;;;;;14.60;76.79;100645.91;1807312;77;21277;-65
2021/10/01 08:18:56;;;;;;;16.12;2.12;;;;;;;13.41;73.36;100636.09;1780593;77;20917;-67
2021/10/01 08:21:15;;;;;;;9.20;2.47;;;;;;;13.43;72.98;100627.70;1790168;79;21348;-66
2021/10/01 08:23:48;;;;;;;9.13;1.70;;;;;;;13.46;73.03;100632.81;1796547;77;22566;-65
2021/10/01 08:26:16;;;;;;;10.05;1.90;;;;;;;13.57;72.96;100630.55;1792587;77;21688;-66
2021/10/01 08:28:51;;;;;;;3.85;1.57;;;;;;;13.68;72.79;100630.54;1795877;79;21561;-66
2021/10/01 08:31:33;;;;;;;3.02;1.52;;;;;;;13.69;72.37;100632.23;1790647;79;21601;-66
2021/10/01 08:34:02;;;;;;;6.17;1.82;;;;;;;13.70;72.25;100622.99;1757392;79;21060;-66
2021/10/01 08:36:29;;;;;;;6.33;1.75;;;;;;;13.79;72.38;100619.09;1797468;78;22309;-67
2021/10/01 08:38:56;;;;;;;8.37;1.90;;;;;;;13.89;72.16;100622.97;1794343;79;21420;-66
2021/10/01 08:41:22;;;;;;;5.62;1.75;;;;;;;14.00;72.02;100619.84;1798537;78;21741;-69
2021/10/01 08:43:53;;;;;;;10.35;2.72;;;;;;;14.02;71.96;100621.48;1791801;78;21246;-68
2021/10/01 08:46:22;;;;;;;9.85;2.87;;;;;;;14.02;71.15;100623.26;1799578;78;20916;-67
2021/10/01 08:48:50;;;;;;;11.63;1.62;;;;;;;13.98;71.31;100616.47;1794621;78;22197;-67
2021/10/01 08:51:17;;;;;;;11.43;1.92;;;;;;;14.04;71.20;100616.17;1793738;78;22022;-66
2021/10/01 08:53:45;;;;;;;43.02;3.75;;;;;;;14.05;71.06;100609.52;1795119;77;22062;-66
2021/10/01 08:56:12;;;;;;;59.33;5.42;;;;;;;14.01;70.05;100614.53;1796714;78;20878;-68
2021/10/01 08:58:44;;;;;;;8.38;2.22;;;;;;;14.01;70.78;100618.47;1790558;77;21364;-67
2021/10/01 09:01:10;;;;;;;11.25;1.70;;;;;;;14.07;70.59;100613.39;1794813;78;22171;-68
2021/10/01 09:03:47;;;;;;;7.40;1.92;;;;;;;14.14;70.43;100616.56;1793554;79;21899;-67
2021/10/01 09:06:16;;;;;;;4.03;1.72;;;;;;;14.19;69.55;100611.95;1796934;78;21886;-67
2021/10/01 09:08:59;;;;;;;5.05;1.30;;;;;;;14.15;70.00;100613.88;1767276;79;21605;-67
2021/10/01 09:11:45;;;;;;;8.48;2.05;;;;;;;14.17;69.44;100609.85;1793019;78;21179;-67
2021/10/01 09:14:33;;;;;;;;;;;;;;;;;;;;;
2021/10/01 09:17:02;;;;;;;10.93;1.85;;;;;;;14.16;69.46;100613.41;1799572;77;21484;-71
2021/10/01 09:20:01;;;;;;;;;;;;;;;;;;;;;
2021/10/01 09:22:32;;;;;;;7.87;2.50;;;;;;;14.22;69.15;100614.42;1639507;84;21422;-68
2021/10/01 09:25:20;;;;;;;6.83;1.75;;;;;;;14.20;68.84;100611.02;1644274;85;21341;-70
2021/10/01 09:27:53;;;;;;;7.50;2.17;;;;;;;14.18;68.94;100605.01;1647960;82;21986;-72
2021/10/01 09:30:22;;;;;;;7.78;1.90;;;;;;;14.23;69.06;100604.33;1647481;85;21728;-68
2021/10/01 09:33:11;;;;;;;4.20;1.50;;;;;;;14.32;68.80;100607.81;1643559;85;20984;-69
2021/10/01 09:35:41;;;;;;;8.88;1.60;;;;;;;14.38;68.66;100612.77;1645990;85;21078;-66
2021/10/01 09:38:18;;;;;;;5.15;1.20;;;;;;;14.44;68.50;100607.20;1616793;86;21628;-69
2021/10/01 09:40:48;;;;;;;5.17;1.37;;;;;;;14.43;68.00;100597.63;1628523;86;21545;-65
2021/10/01 09:43:28;;;;;;;3.42;1.32;;;;;;;14.43;68.29;100602.88;1628206;86;20933;-67
2021/10/01 09:46:06;;;;;;;7.15;1.75;;;;;;;14.48;68.17;100599.58;1628566;84;21080;-66
2021/10/01 09:48:36;;;;;;;12.75;1.85;;;;;;;14.55;67.83;100600.14;1629818;86;21044;-66
2021/10/01 09:51:18;;;;;;;9.40;2.05;;;;;;;14.58;68.08;100601.30;1630118;86;21056;-66
2021/10/01 09:53:50;;;;;;;4.97;1.80;;;;;;;14.63;67.94;100596.67;1629064;86;21493;-66
2021/10/01 09:56:24;;;;;;;3.90;1.47;;;;;;;14.64;67.85;100599.67;1626416;84;21481;-66
2021/10/01 09:59:22;;;;;;;3.98;1.25;;;;;;;14.69;67.73;100602.08;1630985;86;21693;-66
2021/10/01 10:02:12;;;;;;;7.45;1.47;;;;;;;14.74;67.72;100594.81;1633153;86;21609;-67
2021/10/01 10:04:50;;;;;;;3.47;0.95;;;;;;;14.79;67.53;100603.33;1635954;84;21082;-65
2021/10/01 10:07:23;;;;;;;7.03;1.72;;;;;;;14.83;67.33;100593.03;1631560;86;21454;-67
2021/10/01 10:09:54;;;;;;;3.33;1.37;;;;;;;14.84;66.96;100586.83;1626555;86;21087;-66
2021/10/01 10:12:34;;;;;;;5.85;1.25;;;;;;;14.83;67.06;100587.77;1630104;86;21070;-65
2021/10/01 10:15:05;;;;;;;5.05;1.20;;;;;;;14.89;67.22;100583.97;1581580;88;21048;-66
2021/10/01 10:17:32;;;;;;;3.17;1.30;;;;;;;14.93;66.65;100578.48;1610593;83;21084;-66
2021/10/01 10:20:02;;;;;;;9.08;1.30;;;;;;;14.95;66.59;100573.98;1663977;84;22625;-66
2021/10/01 10:22:31;;;;;;;2.17;1.00;;;;;;;14.98;66.54;100576.48;1688987;81;21275;-66
2021/10/01 10:24:58;;;;;;;9.48;1.55;;;;;;;15.00;66.54;100582.48;1715282;81;21326;-65
2021/10/01 10:27:27;;;;;;;8.70;1.70;;;;;;;15.03;66.24;100580.63;1718035;81;22023;-65
2021/10/01 10:29:54;;;;;;;3.08;1.17;;;;;;;15.04;65.72;100575.75;1719664;81;20984;-66
2021/10/01 10:32:25;;;;;;;4.60;1.52;;;;;;;15.08;66.16;100570.73;1716460;81;21556;-65
2021/10/01 10:34:56;;;;;;;2.95;1.02;;;;;;;15.16;66.18;100561.50;1687364;81;20961;-65
2021/10/01 10:37:44;;;;;;;2.72;1.00;;;;;;;15.17;65.52;100563.19;1715137;81;21296;-65
2021/10/01 10:40:20;;;;;;;4.17;1.27;;;;;;;15.22;65.95;100566.43;1740977;80;21044;-66
2021/10/01 10:42:52;;;;;;;2.02;1.00;;;;;;;15.28;65.45;100557.36;1732017;80;20997;-65
2021/10/01 10:45:25;;;;;;;2.52;1.10;;;;;;;15.29;65.08;100556.45;1695462;81;21784;-66
2021/10/01 10:48:00;;;;;;;2.10;1.00;;;;;;;15.29;64.90;100553.81;1748094;80;20979;-66
2021/10/01 10:50:50;;;;;;;4.22;1.00;;;;;;;15.26;64.97;100555.27;1743326;80;20987;-65
2021/10/01 10:53:24;;;;;;;1.52;0.90;;;;;;;15.27;65.13;100554.36;1739833;80;21581;-65
2021/10/01 10:56:05;;;;;;;5.72;1.20;;;;;;;15.33;64.99;100544.81;1715390;80;21378;-65
2021/10/01 10:58:39;;;;;;;2.20;1.30;;;;;;;15.34;64.79;100549.13;1716163;81;21944;-65
2021/10/01 11:01:25;;;;;;;2.05;1.00;;;;;;;15.38;64.67;100552.47;1723782;82;20986;-65
2021/10/01 11:04:13;;;;;;;4.03;1.50;;;;;;;15.42;64.71;100545.63;1720634;81;20912;-66
2021/10/01 11:06:40;;;;;;;2.02;1.10;;;;;;;15.52;64.54;100549.09;1712539;80;21000;-65
2021/10/01 11:09:25;;;;;;;4.00;1.25;;;;;;;15.63;64.42;100544.09;1724007;81;20988;-65
2021/10/01 11:11:57;;;;;;;3.98;1.20;;;;;;;15.66;64.22;100536.86;1716570;81;21577;-65
2021/10/01 11:14:22;;;;;;;3.55;1.00;;;;;;;15.72;64.01;100533.07;1756680;80;21900;-65
2021/10/01 11:16:57;;;;;;;3.80;1.17;;;;;;;15.70;63.92;100538.87;1772627;78;20934;-65
2021/10/01 11:20:16;;;;;;;5.10;1.35;;;;;;;15.67;63.99;100537.70;1766250;79;21370;-64
2021/10/01 11:22:49;;;;;;;5.70;1.12;;;;;;;15.71;64.02;100536.65;1760874;78;20981;-65
2021/10/01 11:25:39;;;;;;;7.05;1.67;;;;;;;15.78;63.84;100534.52;1758213;78;21325;-65
2021/10/01 11:28:02;;;;;;;6.42;1.57;;;;;;;15.76;63.48;100534.58;1762859;78;20916;-65
2021/10/01 11:30:37;;;;;;;2.40;1.17;;;;;;;15.68;63.23;100534.16;1768384;78;21861;-66
2021/10/01 11:33:12;;;;;;;2.47;1.02;;;;;;;15.70;63.43;100528.82;1738500;80;20984;-66
2021/10/01 11:35:52;;;;;;;12.70;1.35;;;;;;;15.68;63.11;100526.27;1770039;79;21320;-66
2021/10/01 11:38:25;;;;;;;4.83;1.20;;;;;;;15.69;63.16;100520.08;1770759;79;21760;-65
2021/10/01 11:41:14;;;;;;;5.65;1.00;;;;;;;15.72;63.23;100517.27;1746310;80;21074;-66
2021/10/01 11:43:56;;;;;;;7.58;1.55;;;;;;;15.74;62.95;100512.78;1767883;79;21371;-65
2021/10/01 11:46:39;;;;;;;10.72;1.20;;;;;;;15.72;62.82;100514.64;1767375;79;21367;-65
2021/10/01 11:49:20;;;;;;;14.73;7.92;;;;;;;15.74;62.39;100513.22;1764448;78;21610;-65
2021/10/01 11:52:05;;;;;;;10.85;8.48;;;;;;;15.75;62.31;100513.15;1762958;78;21512;-65
2021/10/01 11:54:33;;;;;;;25.43;3.75;;;;;;;15.77;62.48;100503.86;1769689;79;20954;-65
2021/10/01 11:57:04;;;;;;;16.90;3.90;;;;;;;15.80;62.23;100507.16;1763355;78;21433;-65
2021/10/01 12:00:03;;;;;;;2.87;1.22;;;;;;;15.80;62.17;100503.21;1758872;79;21045;-65
2021/10/01 12:02:37;;;;;;;7.85;1.72;;;;;;;15.83;62.16;100493.82;1761242;78;20910;-65
2021/10/01 12:05:36;;;;;;;7.55;1.65;;;;;;;15.82;61.77;100500.03;1770677;80;21487;-65
2021/10/01 12:08:10;;;;;;;6.22;1.50;;;;;;;15.80;61.72;100490.05;1770980;79;21590;-65
2021/10/01 12:10:46;;;;;;;10.23;1.50;;;;;;;15.80;61.85;100480.83;1769755;79;20938;-63
2021/10/01 12:13:22;;;;;;;2.42;0.82;;;;;;;15.86;62.14;100488.37;1759274;79;21600;-65
2021/10/01 12:16:00;;;;;;;1.98;0.95;;;;;;;15.89;61.60;100476.34;1756037;79;21668;-65
2021/10/01 12:18:54;;;;;;;2.85;1.32;;;;;;;15.84;61.56;100482.34;1756831;79;21298;-64
2021/10/01 12:21:24;;;;;;;2.05;1.25;;;;;;;15.81;61.10;100481.20;1756146;78;28216;-64
2021/10/01 12:24:14;;;;;;;4.33;1.30;;;;;;;15.75;61.46;100472.34;1760014;79;20982;-64
2021/10/01 12:27:01;;;;;;;2.72;1.15;;;;;;;15.72;61.09;100467.72;1742934;79;21996;-64
2021/10/01 12:29:28;;;;;;;5.45;1.57;;;;;;;15.65;61.13;100468.48;1742238;79;20998;-65
2021/10/01 12:31:58;;;;;;;2.52;0.95;;;;;;;15.65;60.92;100464.54;1754790;79;21951;-68
2021/10/01 12:34:44;;;;;;;1.52;1.05;;;;;;;15.63;61.01;100462.48;1729110;80;20987;-65
2021/10/01 12:37:21;;;;;;;2.70;1.30;;;;;;;15.63;60.83;100464.64;1756346;79;20965;-66
2021/10/01 12:39:58;;;;;;;3.50;1.12;;;;;;;15.64;60.71;100457.11;1748171;79;20952;-67
2021/10/01 12:42:32;;;;;;;20.90;2.42;;;;;;;15.65;60.91;100452.69;1762170;79;20950;-67
2021/10/01 12:45:06;;;;;;;24.23;2.98;;;;;;;15.70;60.72;100448.05;1752370;80;22460;-67
2021/10/01 12:47:36;;;;;;;7.85;1.72;;;;;;;15.72;60.65;100442.23;1756711;79;21542;-65
2021/10/01 12:50:08;;;;;;;3.85;1.30;;;;;;;15.75;60.42;100450.44;1752711;79;21085;-66
2021/10/01 12:52:38;;;;;;;12.82;2.65;;;;;;;15.78;60.55;100436.62;1761032;79;20911;-65
2021/10/01 12:55:09;;;;;;;2.27;1.10;;;;;;;15.82;60.55;100435.52;1754564;79;21009;-67
2021/10/01 12:57:42;;;;;;;2.00;0.98;;;;;;;15.83;60.29;100434.57;1760859;79;21839;-66
2021/10/01 13:00:33;;;;;;;2.83;1.07;;;;;;;15.81;60.16;100429.86;1760426;79;21276;-66
2021/10/01 13:03:10;;;;;;;3.40;0.82;;;;;;;15.74;59.63;100429.84;1763085;79;21327;-66
2021/10/01 13:05:44;;;;;;;4.50;1.20;;;;;;;15.67;59.73;100428.45;1758833;79;21612;-67
2021/10/01 13:08:15;;;;;;;1.75;0.98;;;;;;;15.62;59.32;100423.91;1760642;79;21366;-66
2021/10/01 13:10:50;;;;;;;4.70;1.20;;;;;;;15.59;59.66;100431.98;1756859;79;21437;-66
2021/10/01 13:13:38;;;;;;;18.17;2.02;;;;;;;15.59;59.56;100424.09;1762789;79;21489;-65
2021/10/01 13:16:11;;;;;;;4.62;1.35;;;;;;;15.61;59.76;100426.17;1768112;78;20899;-67
2021/10/01 13:18:39;;;;;;;4.53;1.60;;;;;;;15.65;59.55;100425.05;1773157;80;21540;-66
2021/10/01 13:21:10;;;;;;;5.05;1.07;;;;;;;15.62;59.40;100423.91;1770618;79;21596;-66
2021/10/01 13:23:57;;;;;;;2.98;1.40;;;;;;;15.62;59.37;100422.59;1772269;80;21504;-66